sensor_id;sensor_type;location;lat;lon;timestamp;pressure;altitude;pressure_sealevel;temperature;humidity
5053;BME280;2545;50.892;5.740;2022-08-16T00:01:10;99765.16;;;19.39;100.00
5053;BME280;2545;50.892;5.740;2022-08-16T00:03:36;99776.63;;;19.45;100.00
5053;BME280;2545;50.892;5.740;2022-08-16T00:06:01;99774.59;;;19.47;100.00
5053;BME280;2545;50.892;5.740;2022-08-16T00:08:26;99770.97;;;19.48;100.00
5053;BME280;2545;50.892;5.740;2022-08-16T00:10:52;99783.66;;;19.38;100.00
5053;BME280;2545;50.892;5.740;2022-08-16T00:13:17;99770.78;;;19.23;100.00
5053;BME280;2545;50.892;5.740;2022-08-16T00:15:46;99776.00;;;19.23;100.00
5053;BME280;2545;50.892;5.740;2022-08-16T00:18:13;99766.34;;;19.10;100.00
5053;BME280;2545;50.892;5.740;2022-08-16T00:20:41;99778.63;;;19.17;100.00
5053;BME280;2545;50.892;5.740;2022-08-16T00:23:07;99787.06;;;19.19;100.00
5053;BME280;2545;50.892;5.740;2022-08-16T00:25:32;99789.88;;;19.24;100.00
5053;BME280;2545;50.892;5.740;2022-08-16T00:27:58;99791.47;;;19.18;100.00
5053;BME280;2545;50.892;5.740;2022-08-16T00:30:24;99795.13;;;19.17;100.00
5053;BME280;2545;50.892;5.740;2022-08-16T00:32:52;99791.28;;;19.13;100.00
5053;BME280;2545;50.892;5.740;2022-08-16T00:35:23;99788.25;;;18.96;100.00
5053;BME280;2545;50.892;5.740;2022-08-16T00:37:49;99795.50;;;19.07;100.00
5053;BME280;2545;50.892;5.740;2022-08-16T00:40:20;99799.50;;;19.03;100.00
5053;BME280;2545;50.892;5.740;2022-08-16T00:42:46;99798.31;;;18.99;100.00
5053;BME280;2545;50.892;5.740;2022-08-16T00:45:28;99792.09;;;18.94;100.00
5053;BME280;2545;50.892;5.740;2022-08-16T00:47:56;99782.00;;;18.97;100.00
5053;BME280;2545;50.892;5.740;2022-08-16T00:50:26;99792.09;;;19.07;100.00
5053;BME280;2545;50.892;5.740;2022-08-16T00:52:52;99790.28;;;19.07;100.00
5053;BME280;2545;50.892;5.740;2022-08-16T00:55:19;99794.91;;;19.12;100.00
5053;BME280;2545;50.892;5.740;2022-08-16T00:57:49;99788.06;;;19.04;100.00
5053;BME280;2545;50.892;5.740;2022-08-16T01:00:15;99783.84;;;18.97;100.00
5053;BME280;2545;50.892;5.740;2022-08-16T01:02:42;99780.19;;;18.91;100.00
5053;BME280;2545;50.892;5.740;2022-08-16T01:05:07;99797.91;;;18.89;100.00
5053;BME280;2545;50.892;5.740;2022-08-16T01:07:33;99782.59;;;18.86;100.00
5053;BME280;2545;50.892;5.740;2022-08-16T01:09:58;99792.47;;;18.91;100.00
5053;BME280;2545;50.892;5.740;2022-08-16T01:12:24;99787.03;;;18.92;100.00
5053;BME280;2545;50.892;5.740;2022-08-16T01:14:52;99783.00;;;18.83;100.00
5053;BME280;2545;50.892;5.740;2022-08-16T01:17:20;99792.06;;;18.87;100.00
5053;BME280;2545;50.892;5.740;2022-08-16T01:19:52;99796.28;;;18.82;100.00
5053;BME280;2545;50.892;5.740;2022-08-16T01:22:32;99786.19;;;18.72;100.00
5053;BME280;2545;50.892;5.740;2022-08-16T01:25:05;99804.72;;;18.71;100.00
5053;BME280;2545;50.892;5.740;2022-08-16T01:27:42;99793.03;;;18.67;100.00
5053;BME280;2545;50.892;5.740;2022-08-16T01:30:18;99788.59;;;18.61;100.00
5053;BME280;2545;50.892;5.740;2022-08-16T01:32:44;99791.00;;;18.56;100.00
5053;BME280;2545;50.892;5.740;2022-08-16T01:35:21;99796.63;;;18.59;100.00
5053;BME280;2545;50.892;5.740;2022-08-16T01:37:50;99783.72;;;18.51;100.00
5053;BME280;2545;50.892;5.740;2022-08-16T01:40:18;99789.16;;;18.49;100.00
5053;BME280;2545;50.892;5.740;2022-08-16T01:42:45;99799.38;;;18.44;100.00
5053;BME280;2545;50.892;5.740;2022-08-16T01:45:12;99788.50;;;18.41;100.00
5053;BME280;2545;50.892;5.740;2022-08-16T01:47:39;99793.28;;;18.31;100.00
5053;BME280;2545;50.892;5.740;2022-08-16T01:50:06;99787.84;;;18.26;100.00
5053;BME280;2545;50.892;5.740;2022-08-16T01:52:32;99791.44;;;18.25;100.00
5053;BME280;2545;50.892;5.740;2022-08-16T01:54:58;99800.09;;;18.25;100.00
5053;BME280;2545;50.892;5.740;2022-08-16T01:57:24;99804.72;;;18.23;100.00
5053;BME280;2545;50.892;5.740;2022-08-16T01:59:49;99808.13;;;18.24;100.00
5053;BME280;2545;50.892;5.740;2022-08-16T02:02:15;99794.03;;;18.18;100.00
5053;BME280;2545;50.892;5.740;2022-08-16T02:04:40;99795.84;;;18.24;100.00
5053;BME280;2545;50.892;5.740;2022-08-16T02:07:05;99797.47;;;18.25;100.00
5053;BME280;2545;50.892;5.740;2022-08-16T02:09:35;99793.66;;;18.21;100.00
5053;BME280;2545;50.892;5.740;2022-08-16T02:12:03;99794.06;;;18.25;100.00
5053;BME280;2545;50.892;5.740;2022-08-16T02:14:30;99796.28;;;18.28;100.00
5053;BME280;2545;50.892;5.740;2022-08-16T02:16:59;99789.63;;;18.25;100.00
5053;BME280;2545;50.892;5.740;2022-08-16T02:19:27;99790.25;;;18.27;100.00
5053;BME280;2545;50.892;5.740;2022-08-16T02:21:54;99797.50;;;18.32;100.00
5053;BME280;2545;50.892;5.740;2022-08-16T02:24:20;99785.41;;;18.24;100.00
5053;BME280;2545;50.892;5.740;2022-08-16T02:26:46;99788.63;;;18.20;100.00
5053;BME280;2545;50.892;5.740;2022-08-16T02:29:12;99787.19;;;18.17;100.00
5053;BME280;2545;50.892;5.740;2022-08-16T02:31:38;99795.47;;;18.21;100.00
5053;BME280;2545;50.892;5.740;2022-08-16T02:34:04;99789.22;;;18.22;100.00
5053;BME280;2545;50.892;5.740;2022-08-16T02:36:30;99795.47;;;18.21;100.00
5053;BME280;2545;50.892;5.740;2022-08-16T02:38:55;99778.34;;;18.12;100.00
5053;BME280;2545;50.892;5.740;2022-08-16T02:41:20;99786.97;;;18.12;100.00
5053;BME280;2545;50.892;5.740;2022-08-16T02:43:46;99787.94;;;18.05;100.00
5053;BME280;2545;50.892;5.740;2022-08-16T02:46:11;99790.59;;;18.11;100.00
5053;BME280;2545;50.892;5.740;2022-08-16T02:48:37;99789.97;;;18.09;100.00
5053;BME280;2545;50.892;5.740;2022-08-16T02:51:04;99782.75;;;18.11;100.00
5053;BME280;2545;50.892;5.740;2022-08-16T02:53:30;99779.72;;;18.08;100.00
5053;BME280;2545;50.892;5.740;2022-08-16T02:55:56;99781.88;;;17.97;100.00
5053;BME280;2545;50.892;5.740;2022-08-16T02:58:23;99780.09;;;18.05;100.00
5053;BME280;2545;50.892;5.740;2022-08-16T03:00:49;99792.59;;;18.09;100.00
5053;BME280;2545;50.892;5.740;2022-08-16T03:03:14;99779.50;;;18.03;100.00
5053;BME280;2545;50.892;5.740;2022-08-16T03:05:40;99783.13;;;18.08;100.00
5053;BME280;2545;50.892;5.740;2022-08-16T03:08:06;99785.31;;;18.05;100.00
5053;BME280;2545;50.892;5.740;2022-08-16T03:10:31;99788.31;;;18.02;100.00
5053;BME280;2545;50.892;5.740;2022-08-16T03:12:56;99781.88;;;17.97;100.00
5053;BME280;2545;50.892;5.740;2022-08-16T03:15:22;99780.88;;;17.92;100.00
5053;BME280;2545;50.892;5.740;2022-08-16T03:17:48;99791.13;;;18.00;100.00
5053;BME280;2545;50.892;5.740;2022-08-16T03:20:14;99788.09;;;17.96;100.00
5053;BME280;2545;50.892;5.740;2022-08-16T03:22:40;99792.50;;;17.96;100.00
5053;BME280;2545;50.892;5.740;2022-08-16T03:25:09;99788.31;;;18.02;100.00
5053;BME280;2545;50.892;5.740;2022-08-16T03:27:35;99790.31;;;17.99;100.00
5053;BME280;2545;50.892;5.740;2022-08-16T03:30:27;99801.59;;;18.00;100.00
5053;BME280;2545;50.892;5.740;2022-08-16T03:32:53;99802.38;;;18.01;100.00
5053;BME280;2545;50.892;5.740;2022-08-16T03:35:22;99807.78;;;17.99;100.00
5053;BME280;2545;50.892;5.740;2022-08-16T03:37:48;99815.44;;;18.01;100.00
5053;BME280;2545;50.892;5.740;2022-08-16T03:40:16;99817.84;;;18.02;100.00
5053;BME280;2545;50.892;5.740;2022-08-16T03:42:42;99819.22;;;17.98;100.00
5053;BME280;2545;50.892;5.740;2022-08-16T03:45:07;99813.59;;;17.94;100.00
5053;BME280;2545;50.892;5.740;2022-08-16T03:47:33;99811.97;;;17.93;100.00
5053;BME280;2545;50.892;5.740;2022-08-16T03:49:59;99795.88;;;17.90;100.00
5053;BME280;2545;50.892;5.740;2022-08-16T03:52:25;99806.53;;;17.88;100.00
5053;BME280;2545;50.892;5.740;2022-08-16T03:54:51;99808.50;;;17.86;100.00
5053;BME280;2545;50.892;5.740;2022-08-16T03:57:17;99802.69;;;17.84;100.00
5053;BME280;2545;50.892;5.740;2022-08-16T03:59:42;99813.50;;;17.81;100.00
5053;BME280;2545;50.892;5.740;2022-08-16T04:02:07;99804.47;;;17.84;100.00
5053;BME280;2545;50.892;5.740;2022-08-16T04:04:33;99815.19;;;17.89;100.00
5053;BME280;2545;50.892;5.740;2022-08-16T04:07:01;99820.41;;;17.89;100.00
5053;BME280;2545;50.892;5.740;2022-08-16T04:09:28;99804.47;;;17.77;100.00
5053;BME280;2545;50.892;5.740;2022-08-16T04:11:53;99796.38;;;17.72;100.00
5053;BME280;2545;50.892;5.740;2022-08-16T04:14:19;99821.94;;;17.77;100.00
5053;BME280;2545;50.892;5.740;2022-08-16T04:16:44;99823.72;;;17.76;100.00
5053;BME280;2545;50.892;5.740;2022-08-16T04:19:09;99809.44;;;17.72;100.00
5053;BME280;2545;50.892;5.740;2022-08-16T04:21:35;99810.25;;;17.73;100.00
5053;BME280;2545;50.892;5.740;2022-08-16T04:24:01;99813.47;;;17.75;100.00
5053;BME280;2545;50.892;5.740;2022-08-16T04:26:27;99822.47;;;17.72;100.00
5053;BME280;2545;50.892;5.740;2022-08-16T04:28:52;99821.88;;;17.70;100.00
5053;BME280;2545;50.892;5.740;2022-08-16T04:31:18;99827.69;;;17.72;100.00
5053;BME280;2545;50.892;5.740;2022-08-16T04:33:44;99826.09;;;17.71;100.00
5053;BME280;2545;50.892;5.740;2022-08-16T04:36:09;99812.19;;;17.64;100.00
5053;BME280;2545;50.892;5.740;2022-08-16T04:38:35;99828.06;;;17.69;100.00
5053;BME280;2545;50.892;5.740;2022-08-16T04:41:01;99818.03;;;17.66;100.00
5053;BME280;2545;50.892;5.740;2022-08-16T04:43:26;99821.88;;;17.70;100.00
5053;BME280;2545;50.892;5.740;2022-08-16T04:45:52;99820.25;;;17.69;100.00
5053;BME280;2545;50.892;5.740;2022-08-16T04:48:18;99821.28;;;17.75;100.00
5053;BME280;2545;50.892;5.740;2022-08-16T04:50:43;99821.72;;;17.78;100.00
5053;BME280;2545;50.892;5.740;2022-08-16T04:53:09;99824.53;;;17.77;100.00
5053;BME280;2545;50.892;5.740;2022-08-16T04:55:34;99809.25;;;17.74;100.00
5053;BME280;2545;50.892;5.740;2022-08-16T04:58:00;99833.19;;;17.84;100.00
5053;BME280;2545;50.892;5.740;2022-08-16T05:00:29;99837.59;;;17.83;100.00
5053;BME280;2545;50.892;5.740;2022-08-16T05:03:02;99834.22;;;17.89;100.00
5053;BME280;2545;50.892;5.740;2022-08-16T05:05:29;99841.69;;;17.92;100.00
5053;BME280;2545;50.892;5.740;2022-08-16T05:07:54;99848.53;;;17.93;100.00
5053;BME280;2545;50.892;5.740;2022-08-16T05:10:19;99857.78;;;17.96;100.00
5053;BME280;2545;50.892;5.740;2022-08-16T05:12:45;99853.94;;;17.92;100.00
5053;BME280;2545;50.892;5.740;2022-08-16T05:15:10;99853.78;;;18.00;100.00
5053;BME280;2545;50.892;5.740;2022-08-16T05:17:36;99865.06;;;18.07;100.00
5053;BME280;2545;50.892;5.740;2022-08-16T05:20:03;99849.78;;;18.04;100.00
5053;BME280;2545;50.892;5.740;2022-08-16T05:22:29;99859.88;;;18.14;100.00
5053;BME280;2545;50.892;5.740;2022-08-16T05:24:54;99854.28;;;18.17;100.00
5053;BME280;2545;50.892;5.740;2022-08-16T05:27:20;99862.72;;;18.19;100.00
5053;BME280;2545;50.892;5.740;2022-08-16T05:29:46;99862.59;;;18.27;100.00
5053;BME280;2545;50.892;5.740;2022-08-16T05:32:11;99863.75;;;18.24;100.00
5053;BME280;2545;50.892;5.740;2022-08-16T05:34:37;99855.78;;;18.32;100.00
5053;BME280;2545;50.892;5.740;2022-08-16T05:37:02;99870.47;;;18.40;100.00
5053;BME280;2545;50.892;5.740;2022-08-16T05:39:28;99848.75;;;18.39;100.00
5053;BME280;2545;50.892;5.740;2022-08-16T05:41:54;99863.72;;;18.52;100.00
5053;BME280;2545;50.892;5.740;2022-08-16T05:44:21;99859.09;;;18.54;100.00
5053;BME280;2545;50.892;5.740;2022-08-16T05:46:48;99869.22;;;18.64;100.00
5053;BME280;2545;50.892;5.740;2022-08-16T05:49:14;99870.22;;;18.69;100.00
5053;BME280;2545;50.892;5.740;2022-08-16T05:51:44;99856.59;;;18.74;100.00
5053;BME280;2545;50.892;5.740;2022-08-16T05:54:12;99860.81;;;18.81;100.00
5053;BME280;2545;50.892;5.740;2022-08-16T05:56:39;99878.34;;;18.87;100.00
5053;BME280;2545;50.892;5.740;2022-08-16T05:59:04;99885.78;;;18.90;100.00
5053;BME280;2545;50.892;5.740;2022-08-16T06:01:30;99883.19;;;18.97;100.00
5053;BME280;2545;50.892;5.740;2022-08-16T06:03:55;99889.84;;;19.06;100.00
5053;BME280;2545;50.892;5.740;2022-08-16T06:06:21;99898.53;;;19.20;100.00
5053;BME280;2545;50.892;5.740;2022-08-16T06:08:46;99887.28;;;19.26;100.00
5053;BME280;2545;50.892;5.740;2022-08-16T06:11:11;99890.50;;;19.28;100.00
5053;BME280;2545;50.892;5.740;2022-08-16T06:13:37;99873.00;;;19.35;100.00
5053;BME280;2545;50.892;5.740;2022-08-16T06:16:03;99887.34;;;19.45;100.00
5053;BME280;2545;50.892;5.740;2022-08-16T06:18:29;99883.09;;;19.44;100.00
5053;BME280;2545;50.892;5.740;2022-08-16T06:20:54;99896.59;;;19.54;100.00
5053;BME280;2545;50.892;5.740;2022-08-16T06:23:20;99894.19;;;19.59;100.00
5053;BME280;2545;50.892;5.740;2022-08-16T06:25:45;99902.63;;;19.75;100.00
5053;BME280;2545;50.892;5.740;2022-08-16T06:28:11;99901.44;;;19.84;100.00
5053;BME280;2545;50.892;5.740;2022-08-16T06:30:38;99901.22;;;19.85;100.00
5053;BME280;2545;50.892;5.740;2022-08-16T06:33:03;99911.47;;;20.00;100.00
5053;BME280;2545;50.892;5.740;2022-08-16T06:35:29;99914.28;;;20.11;100.00
5053;BME280;2545;50.892;5.740;2022-08-16T06:37:55;99897.97;;;20.09;100.00
5053;BME280;2545;50.892;5.740;2022-08-16T06:40:21;99894.31;;;20.23;100.00
5053;BME280;2545;50.892;5.740;2022-08-16T06:42:47;99899.75;;;20.42;100.00
5053;BME280;2545;50.892;5.740;2022-08-16T06:45:13;99889.66;;;20.52;100.00
5053;BME280;2545;50.892;5.740;2022-08-16T06:47:38;99895.66;;;20.52;100.00
5053;BME280;2545;50.892;5.740;2022-08-16T06:50:04;99897.88;;;20.55;100.00
5053;BME280;2545;50.892;5.740;2022-08-16T06:52:30;99900.84;;;20.72;100.00
5053;BME280;2545;50.892;5.740;2022-08-16T06:54:57;99903.66;;;20.77;100.00
5053;BME280;2545;50.892;5.740;2022-08-16T06:57:22;99914.84;;;20.97;100.00
5053;BME280;2545;50.892;5.740;2022-08-16T06:59:47;99905.34;;;21.03;100.00
5053;BME280;2545;50.892;5.740;2022-08-16T07:02:13;99902.50;;;21.11;100.00
5053;BME280;2545;50.892;5.740;2022-08-16T07:04:38;99909.91;;;21.20;100.00
5053;BME280;2545;50.892;5.740;2022-08-16T07:07:06;99908.69;;;21.23;100.00
5053;BME280;2545;50.892;5.740;2022-08-16T07:09:32;99920.41;;;21.20;100.00
5053;BME280;2545;50.892;5.740;2022-08-16T07:11:57;99911.88;;;21.25;100.00
5053;BME280;2545;50.892;5.740;2022-08-16T07:14:23;99913.44;;;21.39;100.00
5053;BME280;2545;50.892;5.740;2022-08-16T07:16:48;99918.53;;;21.59;100.00
5053;BME280;2545;50.892;5.740;2022-08-16T07:19:13;99911.03;;;21.62;100.00
5053;BME280;2545;50.892;5.740;2022-08-16T07:21:41;99931.75;;;21.77;100.00
5053;BME280;2545;50.892;5.740;2022-08-16T07:24:06;99927.19;;;21.91;100.00
5053;BME280;2545;50.892;5.740;2022-08-16T07:26:32;99920.06;;;21.98;100.00
5053;BME280;2545;50.892;5.740;2022-08-16T07:28:58;99924.00;;;22.07;100.00
5053;BME280;2545;50.892;5.740;2022-08-16T07:31:24;99918.22;;;21.98;100.00
5053;BME280;2545;50.892;5.740;2022-08-16T07:33:49;99927.81;;;22.11;100.00
5053;BME280;2545;50.892;5.740;2022-08-16T07:36:15;99918.97;;;22.05;100.00
5053;BME280;2545;50.892;5.740;2022-08-16T07:38:41;99923.59;;;22.28;100.00
5053;BME280;2545;50.892;5.740;2022-08-16T07:41:07;99926.69;;;22.43;100.00
5053;BME280;2545;50.892;5.740;2022-08-16T07:43:32;99940.59;;;22.68;100.00
5053;BME280;2545;50.892;5.740;2022-08-16T07:45:58;99933.56;;;22.80;100.00
5053;BME280;2545;50.892;5.740;2022-08-16T07:48:24;99943.38;;;23.03;100.00
5053;BME280;2545;50.892;5.740;2022-08-16T07:50:51;99950.56;;;23.14;97.14
5053;BME280;2545;50.892;5.740;2022-08-16T07:53:17;99956.03;;;23.13;96.43
5053;BME280;2545;50.892;5.740;2022-08-16T07:55:43;99955.75;;;23.32;96.32
5053;BME280;2545;50.892;5.740;2022-08-16T07:58:08;99950.81;;;23.54;92.41
5053;BME280;2545;50.892;5.740;2022-08-16T08:00:34;99963.13;;;23.72;89.56
5053;BME280;2545;50.892;5.740;2022-08-16T08:03:00;99952.47;;;23.78;90.67
5053;BME280;2545;50.892;5.740;2022-08-16T08:05:26;99948.13;;;24.07;87.65
5053;BME280;2545;50.892;5.740;2022-08-16T08:07:53;99953.09;;;24.15;85.22
5053;BME280;2545;50.892;5.740;2022-08-16T08:10:19;99953.66;;;24.17;84.56
5053;BME280;2545;50.892;5.740;2022-08-16T08:12:50;99953.75;;;23.87;85.92
5053;BME280;2545;50.892;5.740;2022-08-16T08:15:16;99956.69;;;23.68;89.63
5053;BME280;2545;50.892;5.740;2022-08-16T08:17:41;99949.72;;;23.85;87.13
5053;BME280;2545;50.892;5.740;2022-08-16T08:20:09;99950.16;;;23.82;87.37
5053;BME280;2545;50.892;5.740;2022-08-16T08:22:35;99959.59;;;23.89;85.77
5053;BME280;2545;50.892;5.740;2022-08-16T08:25:04;99968.19;;;24.08;86.09
5053;BME280;2545;50.892;5.740;2022-08-16T08:27:29;99955.25;;;24.30;84.28
5053;BME280;2545;50.892;5.740;2022-08-16T08:29:55;99961.66;;;24.57;82.07
5053;BME280;2545;50.892;5.740;2022-08-16T08:32:20;99977.00;;;24.72;79.93
5053;BME280;2545;50.892;5.740;2022-08-16T08:34:46;99973.91;;;24.86;79.81
5053;BME280;2545;50.892;5.740;2022-08-16T08:37:12;99971.91;;;24.93;78.53
5053;BME280;2545;50.892;5.740;2022-08-16T08:39:38;99982.69;;;25.03;76.58
5053;BME280;2545;50.892;5.740;2022-08-16T08:42:04;99977.22;;;24.82;79.11
5053;BME280;2545;50.892;5.740;2022-08-16T08:44:31;99978.84;;;24.83;78.87
5053;BME280;2545;50.892;5.740;2022-08-16T08:46:59;99961.09;;;25.06;77.16
5053;BME280;2545;50.892;5.740;2022-08-16T08:49:26;99967.56;;;25.27;75.32
5053;BME280;2545;50.892;5.740;2022-08-16T08:51:52;99960.28;;;25.34;73.52
5053;BME280;2545;50.892;5.740;2022-08-16T08:54:17;99979.66;;;25.40;73.80
5053;BME280;2545;50.892;5.740;2022-08-16T08:56:43;99964.13;;;25.43;73.01
5053;BME280;2545;50.892;5.740;2022-08-16T08:59:08;99969.25;;;25.61;72.20
5053;BME280;2545;50.892;5.740;2022-08-16T09:01:35;99961.03;;;25.46;72.31
5053;BME280;2545;50.892;5.740;2022-08-16T09:04:03;99959.88;;;25.54;72.70
5053;BME280;2545;50.892;5.740;2022-08-16T09:06:29;99975.41;;;25.67;71.71
5053;BME280;2545;50.892;5.740;2022-08-16T09:08:57;99970.31;;;25.77;70.18
5053;BME280;2545;50.892;5.740;2022-08-16T09:11:24;99975.59;;;25.94;69.83
5053;BME280;2545;50.892;5.740;2022-08-16T09:13:50;99969.00;;;25.63;69.42
5053;BME280;2545;50.892;5.740;2022-08-16T09:16:15;99964.47;;;25.92;69.34
5053;BME280;2545;50.892;5.740;2022-08-16T09:18:42;99968.38;;;26.22;68.55
5053;BME280;2545;50.892;5.740;2022-08-16T09:21:08;99968.22;;;26.29;67.13
5053;BME280;2545;50.892;5.740;2022-08-16T09:23:34;99961.94;;;26.18;66.24
5053;BME280;2545;50.892;5.740;2022-08-16T09:26:04;99970.50;;;26.42;65.58
5053;BME280;2545;50.892;5.740;2022-08-16T09:28:29;99954.88;;;26.41;66.13
5053;BME280;2545;50.892;5.740;2022-08-16T09:30:55;99969.91;;;26.78;63.41
5053;BME280;2545;50.892;5.740;2022-08-16T09:33:20;99963.50;;;26.74;63.03
5053;BME280;2545;50.892;5.740;2022-08-16T09:35:47;99967.06;;;27.07;61.47
5053;BME280;2545;50.892;5.740;2022-08-16T09:38:13;99962.94;;;27.16;61.48
5053;BME280;2545;50.892;5.740;2022-08-16T09:40:40;99970.25;;;27.09;60.13
5053;BME280;2545;50.892;5.740;2022-08-16T09:43:07;99967.13;;;27.12;60.76
5053;BME280;2545;50.892;5.740;2022-08-16T09:45:32;99978.28;;;27.14;59.04
5053;BME280;2545;50.892;5.740;2022-08-16T09:48:04;99961.94;;;27.22;59.22
5053;BME280;2545;50.892;5.740;2022-08-16T09:50:30;99971.00;;;27.53;55.60
5053;BME280;2545;50.892;5.740;2022-08-16T09:52:56;99980.09;;;27.62;55.50
5053;BME280;2545;50.892;5.740;2022-08-16T09:55:21;99968.41;;;27.58;55.11
5053;BME280;2545;50.892;5.740;2022-08-16T09:57:46;99979.84;;;27.95;53.88
5053;BME280;2545;50.892;5.740;2022-08-16T10:00:12;99974.38;;;27.75;53.22
5053;BME280;2545;50.892;5.740;2022-08-16T10:02:38;99977.75;;;28.02;53.31
5053;BME280;2545;50.892;5.740;2022-08-16T10:05:06;99974.75;;;28.67;51.89
5053;BME280;2545;50.892;5.740;2022-08-16T10:07:31;99975.84;;;28.81;50.80
5053;BME280;2545;50.892;5.740;2022-08-16T10:09:57;99974.59;;;28.94;49.24
5053;BME280;2545;50.892;5.740;2022-08-16T10:12:24;99986.31;;;29.13;48.56
5053;BME280;2545;50.892;5.740;2022-08-16T10:15:10;99971.75;;;29.26;47.93
5053;BME280;2545;50.892;5.740;2022-08-16T10:17:36;99982.97;;;29.58;46.84
5053;BME280;2545;50.892;5.740;2022-08-16T10:20:06;99981.88;;;30.35;44.95
5053;BME280;2545;50.892;5.740;2022-08-16T10:22:31;99982.44;;;30.06;44.19
5053;BME280;2545;50.892;5.740;2022-08-16T10:24:56;99982.00;;;30.74;43.41
5053;BME280;2545;50.892;5.740;2022-08-16T10:27:22;99984.28;;;31.54;40.96
5053;BME280;2545;50.892;5.740;2022-08-16T10:29:47;99986.31;;;31.96;40.02
5053;BME280;2545;50.892;5.740;2022-08-16T10:32:12;99997.03;;;31.91;39.19
5053;BME280;2545;50.892;5.740;2022-08-16T10:34:37;99985.53;;;31.96;39.39
5053;BME280;2545;50.892;5.740;2022-08-16T10:37:03;99993.09;;;31.06;40.28
5053;BME280;2545;50.892;5.740;2022-08-16T10:39:30;99990.00;;;30.79;41.42
5053;BME280;2545;50.892;5.740;2022-08-16T10:41:55;100000.41;;;31.73;39.21
5053;BME280;2545;50.892;5.740;2022-08-16T10:44:21;100000.50;;;32.49;38.27
5053;BME280;2545;50.892;5.740;2022-08-16T10:46:47;100013.47;;;32.61;38.08
5053;BME280;2545;50.892;5.740;2022-08-16T10:49:13;100002.31;;;32.54;38.22
5053;BME280;2545;50.892;5.740;2022-08-16T10:51:39;99996.13;;;33.62;36.34
5053;BME280;2545;50.892;5.740;2022-08-16T10:54:05;100004.28;;;34.98;34.37
5053;BME280;2545;50.892;5.740;2022-08-16T10:56:31;100003.66;;;35.28;33.73
5053;BME280;2545;50.892;5.740;2022-08-16T10:58:56;99998.25;;;35.64;32.29
5053;BME280;2545;50.892;5.740;2022-08-16T11:01:23;100000.97;;;35.28;32.72
5053;BME280;2545;50.892;5.740;2022-08-16T11:03:51;100015.31;;;33.82;35.04
5053;BME280;2545;50.892;5.740;2022-08-16T11:06:16;100009.66;;;32.14;37.57
5053;BME280;2545;50.892;5.740;2022-08-16T11:08:41;100006.84;;;31.28;38.43
5053;BME280;2545;50.892;5.740;2022-08-16T11:11:07;100002.78;;;30.77;39.91
5053;BME280;2545;50.892;5.740;2022-08-16T11:13:33;100005.56;;;30.21;40.94
5053;BME280;2545;50.892;5.740;2022-08-16T11:15:58;100012.78;;;30.26;41.07
5053;BME280;2545;50.892;5.740;2022-08-16T11:18:25;100002.94;;;31.10;40.32
5053;BME280;2545;50.892;5.740;2022-08-16T11:20:53;100010.16;;;32.45;38.20
5053;BME280;2545;50.892;5.740;2022-08-16T11:23:18;100010.50;;;33.10;36.75
5053;BME280;2545;50.892;5.740;2022-08-16T11:25:44;100022.09;;;33.00;36.73
5053;BME280;2545;50.892;5.740;2022-08-16T11:28:09;100011.03;;;30.85;39.87
5053;BME280;2545;50.892;5.740;2022-08-16T11:30:35;100023.78;;;30.98;40.61
5053;BME280;2545;50.892;5.740;2022-08-16T11:33:01;100007.97;;;30.53;41.59
5053;BME280;2545;50.892;5.740;2022-08-16T11:35:29;100016.97;;;30.67;41.36
5053;BME280;2545;50.892;5.740;2022-08-16T11:37:58;100019.34;;;32.10;39.15
5053;BME280;2545;50.892;5.740;2022-08-16T11:40:26;100026.19;;;33.35;36.20
5053;BME280;2545;50.892;5.740;2022-08-16T11:42:53;100026.66;;;33.00;35.30
5053;BME280;2545;50.892;5.740;2022-08-16T11:45:19;100023.56;;;33.49;34.30
5053;BME280;2545;50.892;5.740;2022-08-16T11:47:44;100026.06;;;34.28;33.11
5053;BME280;2545;50.892;5.740;2022-08-16T11:50:10;100013.16;;;34.58;33.48
5053;BME280;2545;50.892;5.740;2022-08-16T11:52:36;100027.63;;;35.25;32.55
5053;BME280;2545;50.892;5.740;2022-08-16T11:55:04;100013.84;;;34.22;33.65
5053;BME280;2545;50.892;5.740;2022-08-16T11:57:30;100015.84;;;33.98;34.22
5053;BME280;2545;50.892;5.740;2022-08-16T11:59:56;100021.88;;;34.22;33.75
5053;BME280;2545;50.892;5.740;2022-08-16T12:02:21;100027.53;;;35.16;32.95
5053;BME280;2545;50.892;5.740;2022-08-16T12:04:46;100023.22;;;35.65;31.21
5053;BME280;2545;50.892;5.740;2022-08-16T12:07:12;100026.53;;;36.45;30.52
5053;BME280;2545;50.892;5.740;2022-08-16T12:09:38;100023.38;;;36.13;30.41
5053;BME280;2545;50.892;5.740;2022-08-16T12:12:04;100031.66;;;36.55;29.22
5053;BME280;2545;50.892;5.740;2022-08-16T12:14:34;100007.09;;;36.48;29.70
5053;BME280;2545;50.892;5.740;2022-08-16T12:17:01;100024.66;;;37.88;27.88
5053;BME280;2545;50.892;5.740;2022-08-16T12:19:27;100025.13;;;38.45;27.44
5053;BME280;2545;50.892;5.740;2022-08-16T12:21:52;100018.50;;;37.70;28.72
5053;BME280;2545;50.892;5.740;2022-08-16T12:24:18;100025.66;;;37.58;28.14
5053;BME280;2545;50.892;5.740;2022-08-16T12:26:43;100020.78;;;38.61;26.63
5053;BME280;2545;50.892;5.740;2022-08-16T12:29:08;100015.97;;;38.29;26.65
5053;BME280;2545;50.892;5.740;2022-08-16T12:31:34;100011.16;;;38.05;26.92
5053;BME280;2545;50.892;5.740;2022-08-16T12:34:00;100011.00;;;38.48;26.52
5053;BME280;2545;50.892;5.740;2022-08-16T12:36:25;100018.56;;;39.34;26.23
5053;BME280;2545;50.892;5.740;2022-08-16T12:38:51;100010.50;;;38.08;27.49
5053;BME280;2545;50.892;5.740;2022-08-16T12:41:18;100016.28;;;38.65;26.84
5053;BME280;2545;50.892;5.740;2022-08-16T12:43:44;100021.75;;;39.48;25.42
5053;BME280;2545;50.892;5.740;2022-08-16T12:46:09;100014.53;;;39.19;25.88
5053;BME280;2545;50.892;5.740;2022-08-16T12:48:36;100006.78;;;37.24;28.22
5053;BME280;2545;50.892;5.740;2022-08-16T12:51:23;100016.56;;;36.46;29.28
5053;BME280;2545;50.892;5.740;2022-08-16T12:53:52;100012.75;;;38.06;27.23
5053;BME280;2545;50.892;5.740;2022-08-16T12:56:20;100018.44;;;38.80;25.88
5053;BME280;2545;50.892;5.740;2022-08-16T12:58:46;100015.53;;;38.56;26.35
5053;BME280;2545;50.892;5.740;2022-08-16T13:01:19;100005.59;;;38.48;26.63
5053;BME280;2545;50.892;5.740;2022-08-16T13:03:45;100014.25;;;37.52;27.44
5053;BME280;2545;50.892;5.740;2022-08-16T13:06:12;100015.66;;;36.20;29.98
5053;BME280;2545;50.892;5.740;2022-08-16T13:08:37;100017.59;;;36.28;29.33